sensor_id;sensor_type;location;lat;lon;timestamp;temperature;humidity
75517;DHT22;64097;52.548;13.406;2022-10-30T06:01:17;19.40;69.00
75517;DHT22;64097;52.548;13.406;2022-10-30T06:03:43;19.40;69.00
75517;DHT22;64097;52.548;13.406;2022-10-30T06:06:09;19.40;69.00
75517;DHT22;64097;52.548;13.406;2022-10-30T06:08:34;19.40;68.80
75517;DHT22;64097;52.548;13.406;2022-10-30T06:11:00;19.30;68.80
75517;DHT22;64097;52.548;13.406;2022-10-30T06:13:26;19.30;68.80
75517;DHT22;64097;52.548;13.406;2022-10-30T06:15:54;19.40;68.90
75517;DHT22;64097;52.548;13.406;2022-10-30T06:18:21;19.40;69.00
75517;DHT22;64097;52.548;13.406;2022-10-30T06:20:46;19.40;68.90
75517;DHT22;64097;52.548;13.406;2022-10-30T06:23:12;19.40;68.80
75517;DHT22;64097;52.548;13.406;2022-10-30T06:25:38;19.40;68.60
75517;DHT22;64097;52.548;13.406;2022-10-30T06:28:04;19.40;68.50
75517;DHT22;64097;52.548;13.406;2022-10-30T06:30:30;19.40;68.50
75517;DHT22;64097;52.548;13.406;2022-10-30T06:33:01;19.40;68.30
75517;DHT22;64097;52.548;13.406;2022-10-30T06:35:28;19.40;68.30
75517;DHT22;64097;52.548;13.406;2022-10-30T06:37:54;19.40;68.40
75517;DHT22;64097;52.548;13.406;2022-10-30T06:40:21;19.40;68.40
75517;DHT22;64097;52.548;13.406;2022-10-30T06:42:52;19.40;68.40
75517;DHT22;64097;52.548;13.406;2022-10-30T06:45:19;19.40;68.30
75517;DHT22;64097;52.548;13.406;2022-10-30T06:47:45;19.40;68.00
75517;DHT22;64097;52.548;13.406;2022-10-30T06:50:16;19.40;68.00
75517;DHT22;64097;52.548;13.406;2022-10-30T06:52:42;19.40;68.00
75517;DHT22;64097;52.548;13.406;2022-10-30T06:55:08;19.50;68.90
75517;DHT22;64097;52.548;13.406;2022-10-30T06:57:34;19.50;68.00
75517;DHT22;64097;52.548;13.406;2022-10-30T06:59:59;19.50;67.90
75517;DHT22;64097;52.548;13.406;2022-10-30T07:02:26;19.50;67.90
75517;DHT22;64097;52.548;13.406;2022-10-30T07:04:51;19.50;67.80
75517;DHT22;64097;52.548;13.406;2022-10-30T07:07:17;19.50;67.90
75517;DHT22;64097;52.548;13.406;2022-10-30T07:09:43;19.50;67.90
75517;DHT22;64097;52.548;13.406;2022-10-30T07:12:11;19.60;67.90
75517;DHT22;64097;52.548;13.406;2022-10-30T07:14:36;19.60;67.90
75517;DHT22;64097;52.548;13.406;2022-10-30T07:17:02;19.60;67.90
75517;DHT22;64097;52.548;13.406;2022-10-30T07:19:28;19.60;68.00
75517;DHT22;64097;52.548;13.406;2022-10-30T07:21:53;19.60;68.00
75517;DHT22;64097;52.548;13.406;2022-10-30T07:24:19;19.60;68.00
75517;DHT22;64097;52.548;13.406;2022-10-30T07:26:45;19.60;67.90
75517;DHT22;64097;52.548;13.406;2022-10-30T07:29:10;19.60;67.80
75517;DHT22;64097;52.548;13.406;2022-10-30T07:31:36;19.60;67.80
75517;DHT22;64097;52.548;13.406;2022-10-30T07:34:02;19.60;67.80
75517;DHT22;64097;52.548;13.406;2022-10-30T07:36:27;19.60;67.90
75517;DHT22;64097;52.548;13.406;2022-10-30T07:38:53;19.60;67.80
75517;DHT22;64097;52.548;13.406;2022-10-30T07:41:19;19.60;67.90
75517;DHT22;64097;52.548;13.406;2022-10-30T07:43:45;19.60;67.90
75517;DHT22;64097;52.548;13.406;2022-10-30T07:46:12;19.70;68.00
75517;DHT22;64097;52.548;13.406;2022-10-30T07:48:38;19.70;67.90
75517;DHT22;64097;52.548;13.406;2022-10-30T07:51:04;19.80;67.90
75517;DHT22;64097;52.548;13.406;2022-10-30T07:53:30;19.80;67.90
75517;DHT22;64097;52.548;13.406;2022-10-30T07:55:55;19.80;67.80
75517;DHT22;64097;52.548;13.406;2022-10-30T07:58:21;19.80;67.70
75517;DHT22;64097;52.548;13.406;2022-10-30T08:00:47;19.80;67.60
75517;DHT22;64097;52.548;13.406;2022-10-30T08:03:13;19.80;67.50
75517;DHT22;64097;52.548;13.406;2022-10-30T08:05:39;19.80;67.40
75517;DHT22;64097;52.548;13.406;2022-10-30T08:08:06;19.80;67.40
75517;DHT22;64097;52.548;13.406;2022-10-30T08:10:32;19.80;67.30
75517;DHT22;64097;52.548;13.406;2022-10-30T08:12:57;19.90;67.30
75517;DHT22;64097;52.548;13.406;2022-10-30T08:15:23;19.90;67.30
75517;DHT22;64097;52.548;13.406;2022-10-30T08:17:50;19.90;67.10
75517;DHT22;64097;52.548;13.406;2022-10-30T08:20:18;19.90;67.10
75517;DHT22;64097;52.548;13.406;2022-10-30T08:22:44;19.90;67.00
75517;DHT22;64097;52.548;13.406;2022-10-30T08:25:10;19.90;67.00
75517;DHT22;64097;52.548;13.406;2022-10-30T08:27:36;20.00;67.10
75517;DHT22;64097;52.548;13.406;2022-10-30T08:30:02;20.00;67.10
75517;DHT22;64097;52.548;13.406;2022-10-30T08:32:28;20.00;67.00
75517;DHT22;64097;52.548;13.406;2022-10-30T08:34:54;20.00;66.90
75517;DHT22;64097;52.548;13.406;2022-10-30T08:37:19;20.10;66.80
75517;DHT22;64097;52.548;13.406;2022-10-30T08:39:45;20.10;66.60
75517;DHT22;64097;52.548;13.406;2022-10-30T08:42:10;20.10;66.50
75517;DHT22;64097;52.548;13.406;2022-10-30T08:44:36;20.10;66.50
75517;DHT22;64097;52.548;13.406;2022-10-30T08:47:02;20.10;66.50
75517;DHT22;64097;52.548;13.406;2022-10-30T08:49:27;20.10;66.40
75517;DHT22;64097;52.548;13.406;2022-10-30T08:51:53;20.10;66.30
75517;DHT22;64097;52.548;13.406;2022-10-30T08:54:19;20.10;66.30
75517;DHT22;64097;52.548;13.406;2022-10-30T08:56:44;20.20;66.30
75517;DHT22;64097;52.548;13.406;2022-10-30T08:59:10;20.20;66.20
75517;DHT22;64097;52.548;13.406;2022-10-30T09:01:37;20.20;66.30
75517;DHT22;64097;52.548;13.406;2022-10-30T09:04:03;20.20;66.40
75517;DHT22;64097;52.548;13.406;2022-10-30T09:06:30;20.30;66.40
75517;DHT22;64097;52.548;13.406;2022-10-30T09:08:56;20.30;66.30
75517;DHT22;64097;52.548;13.406;2022-10-30T09:11:21;20.40;66.30
75517;DHT22;64097;52.548;13.406;2022-10-30T09:13:47;20.50;66.30
75517;DHT22;64097;52.548;13.406;2022-10-30T09:16:13;20.50;65.90
75517;DHT22;64097;52.548;13.406;2022-10-30T09:18:38;20.60;65.90
75517;DHT22;64097;52.548;13.406;2022-10-30T09:21:04;20.70;65.70
75517;DHT22;64097;52.548;13.406;2022-10-30T09:23:30;20.70;65.30
75517;DHT22;64097;52.548;13.406;2022-10-30T09:25:58;20.80;64.60
75517;DHT22;64097;52.548;13.406;2022-10-30T09:28:24;20.80;64.60
75517;DHT22;64097;52.548;13.406;2022-10-30T09:30:49;20.80;64.50
75517;DHT22;64097;52.548;13.406;2022-10-30T09:33:17;20.80;64.40
75517;DHT22;64097;52.548;13.406;2022-10-30T09:35:43;20.80;64.20
75517;DHT22;64097;52.548;13.406;2022-10-30T09:38:08;20.90;64.30
75517;DHT22;64097;52.548;13.406;2022-10-30T09:44:11;20.90;64.00
75517;DHT22;64097;52.548;13.406;2022-10-30T09:55:09;20.90;63.70
75517;DHT22;64097;52.548;13.406;2022-10-30T09:57:59;20.90;63.70
75517;DHT22;64097;52.548;13.406;2022-10-30T10:00:39;20.90;63.60
75517;DHT22;64097;52.548;13.406;2022-10-30T10:05:53;20.90;63.10
75517;DHT22;64097;52.548;13.406;2022-10-30T10:08:27;21.00;63.90
75517;DHT22;64097;52.548;13.406;2022-10-30T10:11:09;21.00;62.90
75517;DHT22;64097;52.548;13.406;2022-10-30T10:14:15;21.00;62.90
75517;DHT22;64097;52.548;13.406;2022-10-30T10:16:38;21.00;62.80
75517;DHT22;64097;52.548;13.406;2022-10-30T10:19:48;21.00;62.70
75517;DHT22;64097;52.548;13.406;2022-10-30T10:22:31;21.10;62.60
75517;DHT22;64097;52.548;13.406;2022-10-30T10:24:58;21.10;62.30
75517;DHT22;64097;52.548;13.406;2022-10-30T10:30:26;21.10;62.10
75517;DHT22;64097;52.548;13.406;2022-10-30T10:35:52;21.20;62.10
75517;DHT22;64097;52.548;13.406;2022-10-30T10:41:30;21.20;61.80
75517;DHT22;64097;52.548;13.406;2022-10-30T10:44:26;21.20;61.70
75517;DHT22;64097;52.548;13.406;2022-10-30T10:49:56;21.30;61.40
75517;DHT22;64097;52.548;13.406;2022-10-30T10:52:51;21.30;61.30
75517;DHT22;64097;52.548;13.406;2022-10-30T10:55:24;21.30;60.80
75517;DHT22;64097;52.548;13.406;2022-10-30T10:57:52;21.30;60.70
75517;DHT22;64097;52.548;13.406;2022-10-30T11:00:29;21.40;60.70
75517;DHT22;64097;52.548;13.406;2022-10-30T11:02:59;21.40;60.70
75517;DHT22;64097;52.548;13.406;2022-10-30T11:05:40;21.40;60.80
75517;DHT22;64097;52.548;13.406;2022-10-30T11:10:55;21.50;60.40
75517;DHT22;64097;52.548;13.406;2022-10-30T11:13:30;21.50;60.40
75517;DHT22;64097;52.548;13.406;2022-10-30T11:18:34;21.60;60.30
75517;DHT22;64097;52.548;13.406;2022-10-30T11:21:03;21.60;60.10
75517;DHT22;64097;52.548;13.406;2022-10-30T11:23:40;21.60;60.00
75517;DHT22;64097;52.548;13.406;2022-10-30T11:31:45;21.70;59.80
75517;DHT22;64097;52.548;13.406;2022-10-30T11:36:49;21.70;59.80
75517;DHT22;64097;52.548;13.406;2022-10-30T11:39:26;21.70;59.80
75517;DHT22;64097;52.548;13.406;2022-10-30T11:44:46;21.70;59.80
75517;DHT22;64097;52.548;13.406;2022-10-30T11:47:14;21.80;59.90
75517;DHT22;64097;52.548;13.406;2022-10-30T11:49:54;21.80;59.80
75517;DHT22;64097;52.548;13.406;2022-10-30T11:52:22;21.80;59.80
75517;DHT22;64097;52.548;13.406;2022-10-30T11:54:59;21.80;59.70
75517;DHT22;64097;52.548;13.406;2022-10-30T11:57:33;21.80;59.60
75517;DHT22;64097;52.548;13.406;2022-10-30T11:59:59;21.80;59.50
75517;DHT22;64097;52.548;13.406;2022-10-30T12:02:27;21.80;59.60
75517;DHT22;64097;52.548;13.406;2022-10-30T12:05:01;21.90;59.00
75517;DHT22;64097;52.548;13.406;2022-10-30T12:07:31;21.90;59.10
75517;DHT22;64097;52.548;13.406;2022-10-30T12:09:57;21.90;59.10
75517;DHT22;64097;52.548;13.406;2022-10-30T12:12:37;21.90;59.10
75517;DHT22;64097;52.548;13.406;2022-10-30T12:17:40;21.90;58.80
75517;DHT22;64097;52.548;13.406;2022-10-30T12:20:13;21.90;58.70
75517;DHT22;64097;52.548;13.406;2022-10-30T12:22:39;21.90;58.60
75517;DHT22;64097;52.548;13.406;2022-10-30T12:25:16;22.00;58.40
75517;DHT22;64097;52.548;13.406;2022-10-30T12:27:45;22.00;58.50
75517;DHT22;64097;52.548;13.406;2022-10-30T12:30:17;22.00;59.20
75517;DHT22;64097;52.548;13.406;2022-10-30T12:33:02;22.00;58.30
75517;DHT22;64097;52.548;13.406;2022-10-30T12:38:06;22.00;58.20
75517;DHT22;64097;52.548;13.406;2022-10-30T12:40:39;22.00;58.30
75517;DHT22;64097;52.548;13.406;2022-10-30T12:43:16;22.10;57.80
75517;DHT22;64097;52.548;13.406;2022-10-30T12:45:46;22.00;58.10
75517;DHT22;64097;52.548;13.406;2022-10-30T12:48:32;22.10;58.20
75517;DHT22;64097;52.548;13.406;2022-10-30T12:53:52;22.10;58.10
75517;DHT22;64097;52.548;13.406;2022-10-30T12:56:36;22.10;58.10
75517;DHT22;64097;52.548;13.406;2022-10-30T12:59:26;22.10;58.10
75517;DHT22;64097;52.548;13.406;2022-10-30T13:02:00;22.10;58.00
75517;DHT22;64097;52.548;13.406;2022-10-30T13:04:35;22.10;57.60
75517;DHT22;64097;52.548;13.406;2022-10-30T13:07:41;22.10;57.80
75517;DHT22;64097;52.548;13.406;2022-10-30T13:12:46;22.20;57.90
75517;DHT22;64097;52.548;13.406;2022-10-30T13:15:39;22.20;57.70
75517;DHT22;64097;52.548;13.406;2022-10-30T13:18:20;22.20;57.70
75517;DHT22;64097;52.548;13.406;2022-10-30T13:37:39;22.20;57.90
75517;DHT22;64097;52.548;13.406;2022-10-30T13:53:27;22.20;57.80
75517;DHT22;64097;52.548;13.406;2022-10-30T13:55:55;22.20;57.90
75517;DHT22;64097;52.548;13.406;2022-10-30T13:58:40;22.20;57.90
